Time;durP1;ratioP1;P1;durP2;ratioP2;P2;SDS_P1;SDS_P2;PMS_P1;PMS_P2;Temp;Humidity;BMP_temperature;BMP_pressure;BME280_temperature;BME280_humidity;BME280_pressure;Samples;Min_cycle;Max_cycle;Signal;HPM_P1;HPM_P2
2023/02/16 00:01:52;;;;;;;0.30;0.30;;;;;;;-0.30;82.06;98274.50;5024459;28;20132;-57
2023/02/16 00:04:29;;;;;;;0.30;0.30;;;;;;;-0.14;82.31;98301.44;5023816;28;20058;-56
2023/02/16 00:06:56;;;;;;;0.30;0.30;;;;;;;-0.83;81.77;98166.94;5025616;28;20053;-56
2023/02/16 00:09:24;;;;;;;0.30;0.30;;;;;;;-0.67;82.38;98203.16;5025749;28;20502;-58
2023/02/16 00:14:38;;;;;;;0.30;0.30;;;;;;;-0.07;82.33;98290.28;5025336;28;20045;-59
2023/02/16 00:17:04;;;;;;;0.30;0.30;;;;;;;-0.06;82.41;98290.03;5025364;28;20077;-57
2023/02/16 00:19:37;;;;;;;0.30;0.30;;;;;;;-0.13;82.40;98291.38;5025487;28;20061;-56
2023/02/16 00:22:05;;;;;;;0.30;0.30;;;;;;;-0.63;82.04;98236.88;5025424;28;20053;-57
2023/02/16 00:24:32;;;;;;;0.30;0.30;;;;;;;-0.32;82.82;98293.00;5025607;28;20054;-57
2023/02/16 00:26:59;;;;;;;0.30;0.30;;;;;;;-0.32;83.18;98298.44;5025995;28;20045;-58
2023/02/16 00:29:36;;;;;;;0.30;0.30;;;;;;;-0.31;83.34;98292.72;5024086;28;20111;-56
2023/02/16 00:32:04;;;;;;;0.30;0.30;;;;;;;-0.36;83.10;98291.88;5023406;28;20865;-57
2023/02/16 00:34:40;;;;;;;0.30;0.30;;;;;;;-0.32;83.16;98282.91;5024926;28;20321;-58
2023/02/16 00:37:09;;;;;;;0.30;0.30;;;;;;;-0.30;83.31;98279.94;5025287;28;20060;-56
2023/02/16 00:39:37;;;;;;;0.30;0.30;;;;;;;-0.32;82.93;98287.56;5025263;28;20049;-57
2023/02/16 00:42:27;;;;;;;0.30;0.30;;;;;;;-0.32;82.15;98282.91;5025034;28;20463;-57
2023/02/16 00:44:56;;;;;;;0.30;0.30;;;;;;;-1.02;82.76;98184.03;5006195;28;20450;-57
2023/02/16 00:47:36;;;;;;;0.30;0.30;;;;;;;-0.52;84.08;98285.59;5005522;28;20054;-56
2023/02/16 00:50:14;;;;;;;0.25;0.25;;;;;;;-0.78;84.48;98239.56;5005052;28;20433;-56
2023/02/16 00:52:42;;;;;;;0.30;0.30;;;;;;;-0.76;83.82;98226.53;5019032;28;20065;-56
2023/02/16 00:55:12;;;;;;;0.30;0.30;;;;;;;-0.47;83.15;98274.72;5023004;28;20313;-56
2023/02/16 00:58:14;;;;;;;0.30;0.30;;;;;;;-0.49;82.23;98273.38;5024218;28;20149;-57
2023/02/16 01:00:53;;;;;;;0.30;0.30;;;;;;;-0.57;82.62;98277.41;5021819;28;20548;-57
2023/02/16 01:03:23;;;;;;;0.30;0.30;;;;;;;-1.37;83.25;98192.06;5023608;28;20054;-57
2023/02/16 01:11:06;;;;;;;0.30;0.30;;;;;;;-0.74;84.07;98267.84;5024756;28;20076;-56
2023/02/16 01:11:27;;;;;;;0.20;0.20;;;;;;;-0.70;83.96;98272.53;5023817;28;20167;-57
2023/02/16 01:13:55;;;;;;;0.20;0.20;;;;;;;-0.64;84.27;98262.44;5024410;28;20061;-58
2023/02/16 01:16:25;;;;;;;0.30;0.30;;;;;;;-0.79;84.19;98243.38;5024403;28;20509;-55
2023/02/16 01:18:52;;;;;;;0.30;0.30;;;;;;;-0.73;84.31;98255.91;5023782;28;20168;-57
2023/02/16 01:21:20;;;;;;;0.20;0.20;;;;;;;-0.73;84.52;98258.63;5024354;28;20092;-56
2023/02/16 01:23:47;;;;;;;0.20;0.20;;;;;;;-0.63;84.14;98255.91;5023908;28;20045;-58
2023/02/16 01:26:17;;;;;;;0.30;0.30;;;;;;;-0.66;84.52;98248.28;5024072;28;20053;-57
2023/02/16 01:28:44;;;;;;;0.20;0.20;;;;;;;-0.77;84.23;98247.47;5023142;28;20053;-56
2023/02/16 01:31:12;;;;;;;0.30;0.30;;;;;;;-0.88;84.20;98206.91;5023646;28;20057;-57
2023/02/16 01:33:40;;;;;;;0.30;0.30;;;;;;;-0.69;84.62;98254.28;5021840;28;20057;-58
2023/02/16 01:36:30;;;;;;;0.30;0.30;;;;;;;-0.74;85.09;98256.97;5004556;28;20057;-55
2023/02/16 01:38:56;;;;;;;0.30;0.30;;;;;;;-1.30;85.68;98181.78;5023079;28;20103;-57
2023/02/16 01:41:42;;;;;;;0.30;0.30;;;;;;;-0.75;85.48;98252.63;5023387;28;20146;-57
2023/02/16 01:44:16;;;;;;;0.25;0.25;;;;;;;-1.19;85.20;98178.00;5023726;28;20061;-59
2023/02/16 01:47:06;;;;;;;0.28;0.28;;;;;;;-0.75;84.59;98249.91;5022636;28;20108;-56
2023/02/16 01:49:32;;;;;;;0.30;0.30;;;;;;;-0.71;84.81;98245.59;5021544;28;20050;-56
2023/02/16 01:52:11;;;;;;;0.20;0.20;;;;;;;-0.75;85.15;98241.75;5023856;28;20057;-58
2023/02/16 01:54:43;;;;;;;0.30;0.30;;;;;;;-0.89;85.52;98227.03;5023752;28;20057;-58
2023/02/16 01:57:21;;;;;;;0.20;0.20;;;;;;;-0.89;86.29;98255.06;5023594;28;20053;-56
2023/02/16 01:59:48;;;;;;;0.28;0.28;;;;;;;-0.95;86.47;98244.44;5024007;28;20139;-56
2023/02/16 02:02:41;;;;;;;0.28;0.28;;;;;;;-1.02;87.64;98243.84;5023672;28;20049;-57
2023/02/16 02:05:34;;;;;;;0.30;0.30;;;;;;;-0.97;87.02;98246.59;5037045;28;20041;-57
2023/02/16 02:08:22;;;;;;;0.30;0.30;;;;;;;-0.88;86.54;98239.53;5022968;28;20564;-58
2023/02/16 02:11:02;;;;;;;0.30;0.30;;;;;;;-0.88;86.59;98244.97;5004050;28;20054;-57
2023/02/16 02:13:38;;;;;;;0.30;0.30;;;;;;;-0.91;86.19;98245.50;5016758;28;20069;-57
2023/02/16 02:16:06;;;;;;;0.30;0.30;;;;;;;-0.87;86.22;98235.75;5021764;28;20131;-57
2023/02/16 02:18:33;;;;;;;0.30;0.30;;;;;;;-0.86;86.59;98234.66;5023861;28;20255;-56
2023/02/16 02:24:47;;;;;;;0.30;0.30;;;;;;;-0.98;87.68;98247.69;5004342;28;20069;-59
2023/02/16 02:27:23;;;;;;;0.30;0.30;;;;;;;-0.97;88.02;98236.53;4988771;28;20057;-58
2023/02/16 02:30:00;;;;;;;0.28;0.28;;;;;;;-0.94;87.40;98240.63;5019506;28;20057;-58
2023/02/16 02:32:39;;;;;;;0.30;0.30;;;;;;;-0.89;87.36;98232.47;5026418;28;20581;-57
2023/02/16 02:35:45;;;;;;;0.30;0.30;;;;;;;-0.90;86.91;98239.81;5025552;28;20581;-58
2023/02/16 02:38:30;;;;;;;0.30;0.30;;;;;;;-1.17;86.42;98186.72;5027529;28;20045;-57
2023/02/16 02:41:07;;;;;;;0.30;0.30;;;;;;;-0.91;85.66;98234.63;5027202;28;20474;-57
2023/02/16 02:43:55;;;;;;;0.30;0.30;;;;;;;-0.86;84.56;98229.22;5027246;28;20049;-57
2023/02/16 02:46:36;;;;;;;0.30;0.30;;;;;;;-0.92;84.47;98242.00;5007639;28;20243;-57
2023/02/16 02:49:03;;;;;;;0.20;0.20;;;;;;;-1.20;84.48;98198.13;5007814;28;20050;-57
2023/02/16 02:51:30;;;;;;;0.30;0.30;;;;;;;-1.10;83.53;98219.91;5006766;28;20160;-57
2023/02/16 03:03:08;;;;;;;0.22;0.22;;;;;;;-1.29;84.56;98237.75;5025142;28;20049;-57
2023/02/16 03:05:37;;;;;;;0.20;0.20;;;;;;;-1.26;84.86;98242.66;5026575;28;20081;-57
2023/02/16 03:08:13;;;;;;;0.22;0.22;;;;;;;-1.24;85.28;98243.22;5026829;28;20050;-58
2023/02/16 03:13:45;;;;;;;0.20;0.20;;;;;;;-1.16;86.32;98248.16;5027010;28;20509;-57
2023/02/16 03:16:17;;;;;;;0.20;0.20;;;;;;;-1.14;86.48;98254.16;5026723;28;20041;-57
2023/02/16 03:29:57;;;;;;;0.20;0.20;;;;;;;-1.24;85.96;98237.78;5026299;28;20049;-57
2023/02/16 03:32:24;;;;;;;0.30;0.30;;;;;;;-1.15;86.23;98244.34;5024635;28;20092;-57
2023/02/16 03:34:51;;;;;;;0.30;0.30;;;;;;;-1.10;85.29;98247.06;5026403;28;20049;-57
2023/02/16 03:37:18;;;;;;;0.20;0.20;;;;;;;-1.60;85.59;98174.34;5024809;28;20068;-57
2023/02/16 03:42:30;;;;;;;0.20;0.20;;;;;;;-1.32;85.31;98252.72;5025559;28;20112;-57
2023/02/16 03:44:57;;;;;;;0.28;0.28;;;;;;;-1.83;85.02;98162.00;5026118;28;20181;-56
2023/02/16 03:47:23;;;;;;;0.20;0.20;;;;;;;-1.61;85.89;98227.84;5025921;28;20433;-56
2023/02/16 03:49:50;;;;;;;0.30;0.30;;;;;;;-1.37;86.19;98257.28;5024755;28;20091;-57
2023/02/16 03:52:16;;;;;;;0.20;0.20;;;;;;;-1.48;86.45;98255.59;5025874;28;20528;-56
2023/02/16 03:54:43;;;;;;;0.30;0.30;;;;;;;-1.42;86.10;98254.56;5025208;28;20191;-56
2023/02/16 03:57:10;;;;;;;0.20;0.20;;;;;;;-1.72;86.40;98201.72;5025849;28;20049;-56
2023/02/16 03:59:36;;;;;;;0.30;0.30;;;;;;;-1.41;86.57;98257.03;5025152;28;20056;-58
2023/02/16 04:02:03;;;;;;;0.30;0.30;;;;;;;-1.38;85.78;98255.66;5025773;28;20489;-57
2023/02/16 04:04:30;;;;;;;0.20;0.20;;;;;;;-1.40;85.82;98246.94;5024848;28;20095;-56
2023/02/16 04:06:57;;;;;;;0.30;0.30;;;;;;;-1.87;85.17;98171.78;5025343;28;20099;-59
2023/02/16 04:09:23;;;;;;;0.20;0.20;;;;;;;-1.39;84.72;98243.16;5025978;28;20099;-56
2023/02/16 04:14:35;;;;;;;0.20;0.20;;;;;;;-1.85;85.13;98163.38;5006011;28;20058;-57
2023/02/16 04:17:02;;;;;;;0.20;0.20;;;;;;;-1.30;85.19;98236.13;5005893;28;20541;-55
2023/02/16 04:19:29;;;;;;;0.30;0.30;;;;;;;-1.89;85.15;98157.63;5004604;28;20050;-56
2023/02/16 04:21:56;;;;;;;0.30;0.30;;;;;;;-1.37;85.26;98213.81;5005776;28;20089;-57
2023/02/16 04:24:22;;;;;;;0.30;0.30;;;;;;;-1.66;86.31;98181.63;5022389;28;20058;-56
2023/02/16 04:26:49;;;;;;;0.20;0.20;;;;;;;-1.29;85.97;98227.72;5025236;28;20119;-57
2023/02/16 04:29:15;;;;;;;0.25;0.25;;;;;;;-1.32;86.50;98230.13;5024255;28;20046;-56
2023/02/16 04:31:42;;;;;;;0.20;0.20;;;;;;;-1.36;86.73;98226.34;5024736;28;20081;-58
2023/02/16 04:34:09;;;;;;;0.25;0.25;;;;;;;-1.85;86.81;98157.94;5025240;28;20508;-56
2023/02/16 04:36:35;;;;;;;0.30;0.30;;;;;;;-1.37;87.53;98230.09;5024885;28;20140;-58
2023/02/16 04:39:02;;;;;;;0.30;0.30;;;;;;;-1.96;88.62;98151.59;5025137;28;20129;-57
2023/02/16 04:41:29;;;;;;;0.25;0.25;;;;;;;-1.33;87.84;98242.09;5023631;28;20058;-56
2023/02/16 04:43:55;;;;;;;0.20;0.20;;;;;;;-2.46;87.50;98053.66;5023642;28;20111;-57
2023/02/16 04:46:22;;;;;;;0.20;0.20;;;;;;;-1.38;87.27;98310.00;5022537;28;20101;-58
2023/02/16 04:48:49;;;;;;;0.30;0.30;;;;;;;-1.27;87.19;98243.75;5023158;28;20400;-56
2023/02/16 04:51:16;;;;;;;0.20;0.20;;;;;;;-1.27;87.61;98246.47;5025108;28;20049;-56
2023/02/16 04:53:43;;;;;;;0.20;0.20;;;;;;;-1.65;86.00;98169.72;5024406;28;20444;-58
2023/02/16 04:56:11;;;;;;;0.20;0.20;;;;;;;-1.22;85.94;98249.22;5023026;28;20054;-58
2023/02/16 04:58:37;;;;;;;0.28;0.28;;;;;;;-1.39;86.82;98267.63;5023978;28;20085;-58
2023/02/16 05:01:04;;;;;;;0.20;0.20;;;;;;;-1.34;87.56;98259.50;5023090;28;20053;-57
2023/02/16 05:03:32;;;;;;;0.20;0.20;;;;;;;-1.37;88.11;98257.28;5024218;28;20163;-56
2023/02/16 05:05:58;;;;;;;0.30;0.30;;;;;;;-1.59;88.29;98268.31;5022657;28;20041;-56
2023/02/16 05:08:25;;;;;;;0.20;0.20;;;;;;;-1.81;88.54;98233.16;5023949;28;20490;-57
2023/02/16 05:16:23;;;;;;;0.30;0.30;;;;;;;-1.58;89.16;98262.63;5024440;28;20345;-56
2023/02/16 05:18:50;;;;;;;0.30;0.30;;;;;;;-1.91;89.73;98195.09;5014151;28;20041;-56
2023/02/16 05:21:32;;;;;;;0.22;0.22;;;;;;;-1.44;89.18;98273.03;5024603;28;20081;-56
2023/02/16 05:24:03;;;;;;;0.30;0.30;;;;;;;-1.76;88.87;98222.34;5023516;28;20107;-56
2023/02/16 05:26:31;;;;;;;0.20;0.20;;;;;;;-1.43;88.87;98248.31;5024102;28;20049;-56
2023/02/16 05:28:57;;;;;;;0.30;0.30;;;;;;;-1.30;88.18;98268.75;5023801;28;20516;-58
2023/02/16 05:31:25;;;;;;;0.30;0.30;;;;;;;-1.31;87.35;98278.00;5024195;28;20057;-56
2023/02/16 05:33:52;;;;;;;0.30;0.30;;;;;;;-1.78;86.82;98227.19;5023156;28;20053;-56
2023/02/16 05:36:19;;;;;;;0.20;0.20;;;;;;;-1.24;86.80;98273.13;5024394;28;20092;-57
2023/02/16 05:38:45;;;;;;;0.25;0.25;;;;;;;-1.29;86.02;98260.31;5023795;28;20483;-57
2023/02/16 05:41:22;;;;;;;0.20;0.20;;;;;;;-1.12;85.72;98271.00;5024089;28;20080;-57
2023/02/16 05:43:53;;;;;;;0.30;0.30;;;;;;;-1.05;85.34;98277.00;5023832;28;20055;-58
2023/02/16 05:46:22;;;;;;;0.30;0.30;;;;;;;-0.93;84.80;98274.91;5022234;28;20065;-58
2023/02/16 05:48:49;;;;;;;0.30;0.30;;;;;;;-0.97;84.91;98252.03;5023969;28;20420;-57
2023/02/16 05:51:17;;;;;;;0.30;0.30;;;;;;;-1.21;84.97;98204.63;5023999;28;20563;-56
2023/02/16 05:53:44;;;;;;;0.30;0.30;;;;;;;-1.03;85.02;98198.72;5022698;28;20107;-58
2023/02/16 05:56:11;;;;;;;0.30;0.30;;;;;;;-0.52;84.72;98272.00;5020639;28;20045;-57
2023/02/16 05:58:38;;;;;;;0.30;0.30;;;;;;;-0.84;84.71;98216.19;5023624;28;20057;-57
2023/02/16 06:01:05;;;;;;;0.30;0.30;;;;;;;-0.38;85.26;98284.00;5004320;28;20093;-57
2023/02/16 06:03:32;;;;;;;0.28;0.28;;;;;;;-0.32;84.45;98290.28;5004335;28;20078;-58
2023/02/16 06:06:00;;;;;;;0.30;0.30;;;;;;;-0.24;84.08;98278.84;5002933;28;20443;-59
2023/02/16 06:08:28;;;;;;;0.30;0.30;;;;;;;-0.16;83.59;98276.38;5004155;28;20126;-58
2023/02/16 06:10:55;;;;;;;0.30;0.30;;;;;;;-0.79;83.12;98161.78;5017934;28;20639;-60
2023/02/16 06:13:23;;;;;;;0.30;0.30;;;;;;;-0.20;82.62;98241.81;5023510;28;20135;-60
2023/02/16 06:15:54;;;;;;;0.30;0.30;;;;;;;0.13;82.29;98246.69;5024177;28;20053;-58
2023/02/16 06:18:23;;;;;;;0.30;0.30;;;;;;;0.09;81.86;98207.50;5023155;28;20053;-57
2023/02/16 06:20:49;;;;;;;0.30;0.30;;;;;;;0.59;80.92;98289.13;5024171;28;20049;-60
2023/02/16 06:23:17;;;;;;;0.30;0.30;;;;;;;0.68;81.03;98282.03;5021996;28;20049;-54
2023/02/16 06:25:47;;;;;;;0.30;0.30;;;;;;;0.38;81.69;98211.22;5022456;28;20385;-57
2023/02/16 06:28:14;;;;;;;0.40;0.40;;;;;;;0.87;80.91;98247.59;5022653;28;20499;-58
2023/02/16 06:30:41;;;;;;;0.30;0.30;;;;;;;0.76;79.76;98210.56;5021986;28;20089;-58
2023/02/16 06:33:08;;;;;;;0.30;0.30;;;;;;;1.41;79.06;98303.03;5022264;28;20045;-58
2023/02/16 06:35:34;;;;;;;0.30;0.30;;;;;;;1.74;78.02;98308.84;5023306;28;20042;-56
2023/02/16 06:38:01;;;;;;;0.30;0.30;;;;;;;1.58;77.36;98274.56;5023292;28;20072;-60
2023/02/16 06:40:28;;;;;;;0.30;0.30;;;;;;;1.90;77.06;98308.47;5022953;28;20595;-58
2023/02/16 06:42:54;;;;;;;0.40;0.40;;;;;;;1.58;76.72;98236.31;5023256;28;20085;-59
2023/02/16 06:45:21;;;;;;;0.30;0.30;;;;;;;1.45;78.27;98240.50;5023242;28;20061;-58
2023/02/16 06:47:47;;;;;;;0.30;0.30;;;;;;;0.13;76.80;98009.72;5018956;28;20492;-57
2023/02/16 06:50:16;;;;;;;0.40;0.40;;;;;;;1.23;77.10;98126.28;5021525;28;20489;-60
2023/02/16 06:52:43;;;;;;;0.40;0.40;;;;;;;1.84;78.20;98306.88;5022560;28;20429;-59
2023/02/16 06:55:09;;;;;;;0.35;0.35;;;;;;;1.96;77.60;98314.72;5022909;28;20052;-60
2023/02/16 06:57:36;;;;;;;0.30;0.30;;;;;;;2.55;76.30;98318.03;5028058;28;20061;-60
2023/02/16 07:00:06;;;;;;;0.40;0.40;;;;;;;2.64;75.28;98291.72;5029980;28;20103;-57
2023/02/16 07:02:34;;;;;;;0.35;0.35;;;;;;;2.80;74.92;98312.31;5021081;28;20083;-57
2023/02/16 07:05:02;;;;;;;0.40;0.40;;;;;;;3.13;75.19;98316.09;5022334;28;20572;-57
2023/02/16 07:07:29;;;;;;;0.40;0.40;;;;;;;3.38;73.99;98311.13;5026715;28;20053;-59
2023/02/16 07:09:56;;;;;;;0.40;0.40;;;;;;;3.03;73.45;98221.22;5044062;28;20563;-58
2023/02/16 07:12:23;;;;;;;0.40;0.40;;;;;;;3.64;72.38;98265.84;5035878;28;20072;-57
2023/02/16 07:14:50;;;;;;;0.40;0.40;;;;;;;4.01;71.66;98298.72;5025076;28;20049;-57
2023/02/16 07:17:17;;;;;;;0.40;0.40;;;;;;;4.22;70.27;98300.03;5028941;28;20327;-56
2023/02/16 07:19:43;;;;;;;0.50;0.50;;;;;;;3.62;69.45;98212.47;5039637;28;20053;-56
2023/02/16 07:22:10;;;;;;;0.50;0.50;;;;;;;4.53;68.10;98290.19;5039701;28;20141;-56
2023/02/16 07:24:37;;;;;;;0.40;0.40;;;;;;;4.74;66.66;98295.31;5025992;28;20068;-57
2023/02/16 07:27:04;;;;;;;0.40;0.40;;;;;;;4.63;66.95;98295.47;5024138;28;20049;-60
2023/02/16 07:29:30;;;;;;;0.50;0.50;;;;;;;4.70;67.29;98284.09;5045240;28;20049;-58
2023/02/16 07:31:57;;;;;;;0.50;0.50;;;;;;;4.80;66.83;98277.63;5032524;28;20528;-58
2023/02/16 07:34:24;;;;;;;0.40;0.40;;;;;;;4.49;67.47;98258.97;5041955;28;20483;-60
2023/02/16 07:36:51;;;;;;;0.50;0.50;;;;;;;5.04;67.03;98294.75;5025550;28;20578;-60
2023/02/16 07:39:18;;;;;;;0.50;0.50;;;;;;;5.35;66.87;98290.25;5040314;28;20140;-59
2023/02/16 07:41:45;;;;;;;0.40;0.40;;;;;;;5.51;66.13;98286.91;5026286;28;20076;-59
2023/02/16 07:44:11;;;;;;;0.50;0.50;;;;;;;5.76;65.72;98285.50;5005865;28;20070;-60
2023/02/16 07:46:38;;;;;;;0.40;0.40;;;;;;;5.81;63.98;98266.16;5004915;28;20081;-58
2023/02/16 07:49:05;;;;;;;0.50;0.50;;;;;;;5.94;64.15;98293.63;5013415;28;20524;-63
2023/02/16 07:51:31;;;;;;;0.50;0.50;;;;;;;6.21;63.50;98281.75;5012370;28;20137;-59
2023/02/16 07:53:59;;;;;;;0.50;0.50;;;;;;;6.05;63.78;98234.53;5010722;28;20186;-58
2023/02/16 07:56:28;;;;;;;0.60;0.60;;;;;;;6.48;63.98;98254.09;5018066;28;20112;-57
2023/02/16 07:58:57;;;;;;;0.55;0.55;;;;;;;6.87;62.44;98276.19;5004989;28;20394;-57
2023/02/16 08:01:24;;;;;;;0.60;0.60;;;;;;;6.81;61.39;98260.13;5004866;28;20058;-58
2023/02/16 08:03:51;;;;;;;0.60;0.60;;;;;;;6.80;60.88;98295.09;5001085;28;20476;-61
2023/02/16 08:06:19;;;;;;;0.60;0.60;;;;;;;7.39;60.61;98275.28;5002722;28;20042;-58
2023/02/16 08:08:45;;;;;;;0.60;0.60;;;;;;;7.07;60.26;98179.22;5002355;28;20207;-61
2023/02/16 08:11:14;;;;;;;0.60;0.60;;;;;;;7.11;59.82;98279.38;5008080;28;20054;-57
2023/02/16 08:13:41;;;;;;;0.60;0.60;;;;;;;3.83;57.92;97776.13;5002220;28;20599;-58
2023/02/16 08:16:16;;;;;;;0.60;0.60;;;;;;;6.64;59.63;98269.06;4948884;28;20057;-59
2023/02/16 08:18:44;;;;;;;0.60;0.60;;;;;;;6.40;62.11;98279.63;5032362;28;20717;-57
2023/02/16 08:21:15;;;;;;;0.60;0.60;;;;;;;6.92;60.09;98215.47;5028034;28;20406;-59
2023/02/16 08:23:46;;;;;;;0.60;0.60;;;;;;;7.33;59.44;98237.94;5024973;28;20136;-61
2023/02/16 08:26:17;;;;;;;0.70;0.70;;;;;;;7.43;59.00;98243.16;5031397;28;20044;-63
2023/02/16 08:28:48;;;;;;;0.70;0.70;;;;;;;6.78;59.13;98170.69;4901926;28;5001524;-61
2023/02/16 08:31:19;;;;;;;0.70;0.70;;;;;;;7.74;57.62;98265.13;5018128;28;20049;-60
2023/02/16 08:33:46;;;;;;;0.70;0.70;;;;;;;7.85;56.95;98260.94;5022570;28;20050;-60
2023/02/16 08:36:25;;;;;;;0.70;0.70;;;;;;;7.97;57.44;98263.03;5002328;28;20056;-61
2023/02/16 08:38:52;;;;;;;0.70;0.70;;;;;;;7.66;56.70;98264.00;5024653;28;20045;-57
2023/02/16 08:41:21;;;;;;;0.70;0.70;;;;;;;7.88;57.23;98259.47;5017365;28;20275;-59
2023/02/16 08:43:50;;;;;;;0.60;0.60;;;;;;;8.30;56.79;98259.50;5022962;28;20473;-56
2023/02/16 08:46:16;;;;;;;0.70;0.70;;;;;;;7.80;57.08;98136.16;5018525;28;20049;-63
2023/02/16 08:48:44;;;;;;;0.70;0.70;;;;;;;8.85;55.51;98251.28;5027716;28;20075;-58
2023/02/16 08:51:16;;;;;;;0.80;0.80;;;;;;;8.73;54.99;98237.34;5023200;28;20071;-58
2023/02/16 08:53:46;;;;;;;0.70;0.70;;;;;;;8.60;54.07;98210.75;5024022;28;20057;-60
2023/02/16 08:56:13;;;;;;;0.70;0.70;;;;;;;8.51;54.92;98276.22;5024451;28;20483;-59
2023/02/16 08:58:40;;;;;;;0.70;0.70;;;;;;;8.78;55.00;98253.72;5021793;28;20057;-62
2023/02/16 09:01:08;;;;;;;0.70;0.70;;;;;;;9.04;53.30;98248.94;5032954;28;20124;-60
2023/02/16 09:03:37;;;;;;;0.80;0.80;;;;;;;9.23;53.37;98268.72;5033862;28;20057;-58
2023/02/16 09:06:04;;;;;;;0.70;0.70;;;;;;;8.37;54.63;98214.84;5024205;28;20476;-60
2023/02/16 09:08:32;;;;;;;0.70;0.70;;;;;;;9.20;53.73;98263.81;5023860;28;20124;-58
2023/02/16 09:11:04;;;;;;;0.80;0.80;;;;;;;9.19;53.61;98262.22;5042594;28;20076;-58
2023/02/16 09:13:36;;;;;;;0.80;0.80;;;;;;;9.24;53.15;98242.69;5029001;28;20136;-59
2023/02/16 09:16:05;;;;;;;0.80;0.80;;;;;;;9.17;53.03;98245.13;5022848;28;20107;-58
2023/02/16 09:18:32;;;;;;;0.70;0.70;;;;;;;9.13;53.00;98274.59;5019875;28;20076;-59
2023/02/16 09:21:05;;;;;;;0.70;0.70;;;;;;;9.01;53.34;98260.63;5026746;28;20049;-58
2023/02/16 09:23:34;;;;;;;0.80;0.80;;;;;;;9.20;53.95;98256.34;5023887;28;20053;-57
2023/02/16 09:26:01;;;;;;;0.70;0.70;;;;;;;9.19;51.99;98257.50;5021679;28;20360;-57
2023/02/16 09:28:29;;;;;;;0.75;0.75;;;;;;;9.24;52.28;98242.69;5021709;28;20060;-58
2023/02/16 09:30:56;;;;;;;0.77;0.77;;;;;;;9.23;51.97;98235.53;5025905;28;20057;-59
2023/02/16 09:33:23;;;;;;;0.80;0.80;;;;;;;9.40;50.94;98235.44;5028112;28;20578;-57
2023/02/16 09:35:50;;;;;;;0.80;0.80;;;;;;;9.66;50.54;98249.13;5023777;28;20229;-59
2023/02/16 09:38:17;;;;;;;0.90;0.90;;;;;;;9.47;50.90;98240.47;5029285;28;20094;-59
2023/02/16 09:40:44;;;;;;;0.75;0.75;;;;;;;9.32;51.64;98241.84;5027798;28;20243;-58
2023/02/16 09:43:29;;;;;;;0.70;0.70;;;;;;;9.17;51.96;98245.13;5022442;28;20147;-57
2023/02/16 09:45:57;;;;;;;0.75;0.75;;;;;;;8.68;52.50;98160.16;5003957;28;20050;-60
2023/02/16 09:48:37;;;;;;;0.70;0.70;;;;;;;9.27;52.00;98225.41;5018251;28;20455;-59
2023/02/16 09:51:07;;;;;;;0.70;0.70;;;;;;;9.31;51.51;98231.91;5036275;28;20057;-58
2023/02/16 09:53:41;;;;;;;0.70;0.70;;;;;;;9.53;51.39;98262.03;5022423;28;20089;-60
2023/02/16 09:56:26;;;;;;;0.70;0.70;;;;;;;9.31;50.68;98171.06;5022010;28;20435;-58
2023/02/16 09:59:19;;;;;;;0.80;0.80;;;;;;;9.79;50.32;98226.72;5020323;28;20603;-57
2023/02/16 10:01:56;;;;;;;0.70;0.70;;;;;;;9.95;50.10;98216.69;5019756;28;20141;-57
2023/02/16 10:04:39;;;;;;;0.70;0.70;;;;;;;9.66;49.91;98111.59;5018170;28;20098;-59
2023/02/16 10:07:42;;;;;;;0.80;0.80;;;;;;;10.54;48.17;98212.56;5040021;28;20053;-58
2023/02/16 10:10:15;;;;;;;0.90;0.90;;;;;;;10.51;47.74;98210.50;5002352;28;20156;-58
2023/02/16 10:12:49;;;;;;;0.85;0.85;;;;;;;9.42;49.12;98146.63;5030632;28;20093;-56
2023/02/16 10:15:21;;;;;;;0.85;0.85;;;;;;;10.47;47.93;98198.50;5023096;28;20109;-57
2023/02/16 10:17:57;;;;;;;0.80;0.80;;;;;;;10.36;47.57;98152.16;5036319;28;20064;-60
2023/02/16 10:20:31;;;;;;;0.90;0.90;;;;;;;10.87;47.34;98195.13;5025011;28;20046;-58
2023/02/16 10:23:17;;;;;;;0.90;0.90;;;;;;;10.38;47.84;98192.22;5024055;28;20050;-60
2023/02/16 10:25:56;;;;;;;0.85;0.85;;;;;;;10.75;47.27;98159.06;5023061;28;20099;-57
2023/02/16 10:28:45;;;;;;;0.80;0.80;;;;;;;10.08;46.71;98163.03;5017215;28;20054;-56
2023/02/16 10:31:19;;;;;;;0.80;0.80;;;;;;;10.31;47.73;98172.56;5021375;28;20136;-56
2023/02/16 10:33:59;;;;;;;0.80;0.80;;;;;;;10.21;47.83;98161.91;5022769;28;20531;-58
2023/02/16 10:36:56;;;;;;;0.88;0.88;;;;;;;10.74;47.86;98180.44;5033157;28;20218;-57
2023/02/16 10:39:26;;;;;;;0.80;0.80;;;;;;;11.25;47.13;98167.88;5020543;28;20085;-59
2023/02/16 10:42:04;;;;;;;0.90;0.90;;;;;;;11.33;45.41;98159.44;5026357;28;20045;-60
2023/02/16 10:44:39;;;;;;;0.88;0.88;;;;;;;11.41;45.29;98127.19;5019049;28;20053;-61
2023/02/16 10:47:23;;;;;;;1.00;1.00;;;;;;;10.85;45.89;98054.09;5021166;28;20060;-59
2023/02/16 10:49:51;;;;;;;0.90;0.90;;;;;;;11.19;45.75;98158.19;5021186;28;20085;-59
2023/02/16 10:52:18;;;;;;;0.90;0.90;;;;;;;11.22;45.53;98158.28;5010207;28;20671;-61
2023/02/16 10:54:45;;;;;;;0.90;0.90;;;;;;;11.37;45.09;98140.13;5030673;28;20057;-56
2023/02/16 10:57:25;;;;;;;0.90;0.90;;;;;;;11.76;44.92;98161.59;5028436;28;20463;-59
2023/02/16 10:59:56;;;;;;;1.00;1.00;;;;;;;11.78;44.78;98159.25;5024567;28;20061;-59
2023/02/16 11:02:24;;;;;;;0.90;0.90;;;;;;;11.72;44.57;98146.78;5025792;28;20463;-57
2023/02/16 11:04:53;;;;;;;1.00;1.00;;;;;;;11.87;44.10;98162.72;5024815;28;20046;-58
2023/02/16 11:07:26;;;;;;;1.00;1.00;;;;;;;11.93;44.21;98151.00;5025268;28;20478;-59
2023/02/16 11:09:56;;;;;;;1.00;1.00;;;;;;;11.91;44.11;98146.97;5035081;28;20053;-58
2023/02/16 11:12:26;;;;;;;0.90;0.90;;;;;;;11.98;43.80;98138.88;5022694;28;20310;-60
2023/02/16 11:15:03;;;;;;;0.90;0.90;;;;;;;11.32;45.18;98112.59;5024477;28;20049;-60
2023/02/16 11:17:32;;;;;;;0.90;0.90;;;;;;;11.67;44.50;98108.19;5026169;28;20084;-57
2023/02/16 11:20:08;;;;;;;0.90;0.90;;;;;;;11.53;44.62;98132.69;5024391;28;20327;-57
2023/02/16 11:22:37;;;;;;;1.00;1.00;;;;;;;11.47;44.51;98136.88;5025547;28;20085;-56
2023/02/16 11:25:16;;;;;;;0.90;0.90;;;;;;;11.70;44.87;98129.69;5026059;28;20178;-59
2023/02/16 11:27:58;;;;;;;1.00;1.00;;;;;;;10.84;45.76;98093.25;5025466;28;20077;-57
2023/02/16 11:30:35;;;;;;;0.90;0.90;;;;;;;11.40;45.31;98126.38;5022655;28;20050;-58
2023/02/16 11:33:17;;;;;;;1.00;1.00;;;;;;;11.80;44.42;98112.53;5024094;28;20132;-57
2023/02/16 11:35:44;;;;;;;1.00;1.00;;;;;;;11.20;44.28;98059.94;5035430;28;20574;-57
2023/02/16 11:38:31;;;;;;;0.90;0.90;;;;;;;11.47;44.62;98103.56;5038949;28;20530;-57
2023/02/16 11:41:00;;;;;;;1.00;1.00;;;;;;;11.56;44.99;98104.25;5035699;28;20073;-59
2023/02/16 11:43:31;;;;;;;0.90;0.90;;;;;;;11.78;43.92;98100.97;5010542;28;20058;-55
2023/02/16 11:46:16;;;;;;;1.00;1.00;;;;;;;11.19;44.20;98016.75;5025135;28;20049;-57
2023/02/16 11:48:43;;;;;;;1.00;1.00;;;;;;;12.21;43.71;98089.91;5021858;28;20528;-58
2023/02/16 11:51:14;;;;;;;0.90;0.90;;;;;;;12.04;44.15;98079.13;5016847;28;20115;-56
2023/02/16 11:53:43;;;;;;;1.00;1.00;;;;;;;11.44;44.27;98076.53;5028597;28;20106;-58
2023/02/16 11:56:23;;;;;;;1.00;1.00;;;;;;;11.78;44.42;98070.44;5029632;28;20567;-59
2023/02/16 11:59:20;;;;;;;1.00;1.00;;;;;;;12.19;43.71;98070.81;5025002;28;20077;-56
2023/02/16 12:02:23;;;;;;;1.00;1.00;;;;;;;12.17;43.56;98066.78;5018528;28;20057;-57
2023/02/16 12:05:07;;;;;;;1.00;1.00;;;;;;;12.23;42.96;98051.47;5024651;28;20045;-56
2023/02/16 12:07:52;;;;;;;1.00;1.00;;;;;;;12.33;43.09;98064.81;5023937;28;20061;-59
2023/02/16 12:10:33;;;;;;;0.93;0.93;;;;;;;11.63;44.61;98060.09;5025087;28;20065;-56
2023/02/16 12:13:09;;;;;;;0.90;0.90;;;;;;;12.08;43.80;98063.34;5020517;28;20060;-59
2023/02/16 12:16:03;;;;;;;1.00;1.00;;;;;;;11.71;43.49;98000.84;5032716;28;20428;-57
2023/02/16 12:18:37;;;;;;;1.00;1.00;;;;;;;12.34;43.52;98054.53;5024945;28;20414;-61
2023/02/16 12:21:06;;;;;;;1.00;1.00;;;;;;;12.30;43.03;98054.44;5026000;28;20049;-60
2023/02/16 12:24:03;;;;;;;1.05;1.05;;;;;;;12.09;43.99;98046.34;3470204;28;10002430;-61
2023/02/16 12:26:51;;;;;;;0.98;0.98;;;;;;;12.02;43.72;98042.56;4093052;28;10001650;-58
2023/02/16 12:29:26;;;;;;;1.00;1.00;;;;;;;12.47;42.98;98036.63;5036728;28;20126;-61
2023/02/16 12:32:18;;;;;;;0.98;0.98;;;;;;;12.65;42.39;98043.41;5043440;28;20053;-57
2023/02/16 12:35:12;;;;;;;1.10;1.10;;;;;;;12.33;43.39;98036.25;5020097;28;20084;-60
2023/02/16 12:37:57;;;;;;;1.00;1.00;;;;;;;11.76;43.71;98033.91;5023610;28;20053;-56
2023/02/16 12:40:50;;;;;;;1.00;1.00;;;;;;;11.86;43.63;98027.84;5043347;28;20049;-56
2023/02/16 12:43:31;;;;;;;0.98;0.98;;;;;;;12.28;43.50;98022.63;5043563;28;20049;-56